Cape Newenham LRRS, AK

11:24 PM AKST on January 25, 2015 (GMT -0900)
Cape Newenham | Change Station
CLOSE
Current Station
Airport
Location: Cape Newenham,
Elevation: 538 ft
Nearby Weather Stations

Elev 538 ft 58.65 °N, 162.06 °W | Updated 29 minutes ago

Mostly Cloudy
Mostly Cloudy
6 °F
Feels Like -10 °F
N
14
Wind Variable Wind from ESE
Gusts 23 mph

Today
High -- | Low -- °F
--% Chance of Precip.
Yesterday
High -- | Low -- °F
Precip. -- in
10:09 AM 5:52 PM
Waxing Crescent, 41% visible
Pressure 29.91 in
Visibility 10.0 miles
Clouds Mostly Cloudy 14000 ft
Windchill -10 °F
Dew Point -1 °F
Humidity 73%
Rainfall 0.00 in
Snow Depth Not available.
UV 0 out of 12
Pollen Not available.
Air Quality Not available.
Flu Activity Not available.
METAR PAEH 260755Z AUTO 11012G20KT 10SM BKN140 M14/M18 A2985 RMK AO2 SLP129 T11421181

More Conditions Fewer Conditions

Pressure 29.91 in
Visibility 10.0 miles
Clouds Mostly Cloudy 14000 ft
Windchill -10 °F
Dew Point -1 °F
Humidity 73%
Rainfall 0.00 in
Snow Depth Not available.
UV 0 out of 12
Pollen Not available.
Air Quality Not available.
Flu Activity Not available.
METAR PAEH 260755Z AUTO 11012G20KT 10SM BKN140 M14/M18 A2985 RMK AO2 SLP129 T11421181

More Conditions Fewer Conditions

10-Day Weather Forecast

Almanac

Astronomy

Jan. 25, 2015 Rise Set
Actual Time
Civil Twilight
Nautical Twilight
Astronomical Twilight
Moon
Length of Visible Light
Length of Day
Tomorrow will be .
, % of the Moon is Illuminated

Today's Extremes

State Highs State Lows

Community

WunderPhotos

Upload Photos

1,790,163 photos uploaded!

WunderBlogs® & News

Nearby

Air Quality

  Air Quality AQ Index Pollutant
Not available.

Snow Depth

Station Depth Elevation

Earthquake Activity

City Distance Mag. Time & Date
Minimum magnitude displayed is 2.5.

Coastal Water Temperatures

Place Temperature

Nearby Weather Stations